createdAt,value
2016-05-20T00:00:05.657Z,45.01
2016-05-20T00:01:05.723Z,44.92
2016-05-20T00:02:05.757Z,44.92
2016-05-20T00:03:05.806Z,44.92
2016-05-20T00:04:05.871Z,44.82
2016-05-20T00:05:05.920Z,44.82
2016-05-20T00:06:05.986Z,44.92
2016-05-20T00:07:06.004Z,44.73
2016-05-20T00:08:06.070Z,44.73
2016-05-20T00:09:05.978Z,44.63
2016-05-20T00:10:06.153Z,44.63
2016-05-20T00:11:06.218Z,44.73
2016-05-20T00:12:06.283Z,44.54
2016-05-20T00:13:06.333Z,44.63
2016-05-20T00:14:06.350Z,44.82
2016-05-20T00:15:06.433Z,44.63
2016-05-20T00:16:06.481Z,44.54
2016-05-20T00:17:06.531Z,44.54
2016-05-20T00:18:06.566Z,44.44
2016-05-20T00:19:06.458Z,44.54
2016-05-20T00:20:06.696Z,44.44
2016-05-20T00:21:06.730Z,44.44
2016-05-20T00:22:06.779Z,44.54
2016-05-20T00:23:06.844Z,44.54
2016-05-20T00:24:07.128Z,44.44
2016-05-20T00:25:06.927Z,44.34
2016-05-20T00:26:06.977Z,44.54
2016-05-20T00:27:07.042Z,44.54
2016-05-20T00:28:07.092Z,44.54
2016-05-20T00:29:07.126Z,44.44
2016-05-20T00:30:07.207Z,44.44
2016-05-20T00:31:07.226Z,44.44
2016-05-20T00:32:07.274Z,44.82
2016-05-20T00:33:07.340Z,44.54
2016-05-20T00:34:07.374Z,44.44
2016-05-20T00:35:07.440Z,44.15
2016-05-20T00:36:07.489Z,44.44
2016-05-20T00:37:07.538Z,44.24
2016-05-20T00:38:07.587Z,44.24
2016-05-20T00:39:08.325Z,44.15
2016-05-20T00:40:07.687Z,44.06
2016-05-20T00:41:07.736Z,44.06
2016-05-20T00:42:07.801Z,44.15
2016-05-20T00:43:07.835Z,44.15
2016-05-20T00:44:07.744Z,44.15
2016-05-20T00:45:07.951Z,43.96
2016-05-20T00:46:08.000Z,43.87
2016-05-20T00:47:08.049Z,43.77
2016-05-20T00:48:08.099Z,43.96
2016-05-20T00:49:08.149Z,43.74
2016-05-20T00:50:08.198Z,43.87
2016-05-20T00:51:08.247Z,44.06
2016-05-20T00:52:08.282Z,43.67
2016-05-20T00:53:08.175Z,43.67
2016-05-20T00:54:08.396Z,43.67
2016-05-20T00:55:08.446Z,43.67
2016-05-20T00:56:08.511Z,43.77
2016-05-20T00:57:08.545Z,43.57
2016-05-20T00:58:08.438Z,43.57
2016-05-20T00:59:08.660Z,43.46
2016-05-20T01:00:08.694Z,43.77
2016-05-20T01:01:08.743Z,43.67
2016-05-20T01:02:08.809Z,43.38
2016-05-20T01:03:08.843Z,43.48
2016-05-20T01:04:08.893Z,43.29
2016-05-20T01:05:08.973Z,43.67
2016-05-20T01:06:09.007Z,43.57
2016-05-20T01:07:09.056Z,43.48
2016-05-20T01:08:09.231Z,43.67
2016-05-20T01:09:08.999Z,43.67
2016-05-20T01:10:09.220Z,43.57
2016-05-20T01:11:09.301Z,43.57
2016-05-20T01:12:09.366Z,43.48
2016-05-20T01:13:09.369Z,43.57
2016-05-20T01:14:09.404Z,43.48
2016-05-20T01:15:09.296Z,43.77
2016-05-20T01:16:09.361Z,43.48
2016-05-20T01:17:09.395Z,43.48
2016-05-20T01:18:09.602Z,43.19
2016-05-20T01:19:09.683Z,43.36
2016-05-20T01:20:09.716Z,43.48
2016-05-20T01:21:09.766Z,43.48
2016-05-20T01:22:09.815Z,43.48
2016-05-20T01:23:09.865Z,43.27
2016-05-20T01:24:09.930Z,43.48
2016-05-20T01:25:09.823Z,43.36
2016-05-20T01:26:10.013Z,43.46
2016-05-20T01:27:10.079Z,43.38
2016-05-20T01:28:10.144Z,43.38
2016-05-20T01:29:10.163Z,43.48
2016-05-20T01:30:10.227Z,43.19
2016-05-20T01:31:10.277Z,43.38
2016-05-20T01:32:10.311Z,43.57
2016-05-20T01:33:10.360Z,43.36
2016-05-20T01:34:10.410Z,43.38
2016-05-20T01:35:10.476Z,43.36
2016-05-20T01:36:10.525Z,43.38
2016-05-20T01:37:10.559Z,43.38
2016-05-20T01:38:10.640Z,43.48
2016-05-20T01:39:11.517Z,43.17
2016-05-20T01:40:10.723Z,43.1
2016-05-20T01:41:10.772Z,43.29
2016-05-20T01:42:10.682Z,43.38
2016-05-20T01:43:10.873Z,43.36
2016-05-20T01:44:10.921Z,43.29
2016-05-20T01:45:10.987Z,43.1
2016-05-20T01:46:11.020Z,43.29
2016-05-20T01:47:11.086Z,43.29
2016-05-20T01:48:10.964Z,43.19
2016-05-20T01:49:11.185Z,42.81
2016-05-20T01:50:11.234Z,43.1
2016-05-20T01:51:11.268Z,43.17
2016-05-20T01:52:11.177Z,42.98
2016-05-20T01:53:11.383Z,43.07
2016-05-20T01:54:11.416Z,43.17
2016-05-20T01:55:11.482Z,43.17
2016-05-20T01:56:11.547Z,42.98
2016-05-20T01:57:11.582Z,43
2016-05-20T01:58:11.630Z,43.29
2016-05-20T01:59:11.696Z,43.17
2016-05-20T02:00:11.730Z,42.98
2016-05-20T02:01:11.796Z,42.79
2016-05-20T02:02:11.845Z,43.27
2016-05-20T02:03:11.879Z,42.6
2016-05-20T02:04:11.943Z,43.07
2016-05-20T02:05:11.993Z,42.4
2016-05-20T02:06:12.043Z,42.88
2016-05-20T02:07:12.092Z,42.88
2016-05-20T02:08:12.157Z,42.69
2016-05-20T02:09:12.395Z,42.9
2016-05-20T02:10:12.242Z,42.79
2016-05-20T02:11:12.291Z,42.69
2016-05-20T02:12:12.326Z,42.98
2016-05-20T02:13:12.406Z,42.69
2016-05-20T02:14:12.299Z,42.79
2016-05-20T02:15:12.489Z,42.79
2016-05-20T02:16:12.538Z,42.5
2016-05-20T02:17:12.604Z,42.5
2016-05-20T02:18:12.653Z,42.79
2016-05-20T02:19:12.687Z,42.88
2016-05-20T02:20:12.753Z,42.88
2016-05-20T02:21:12.802Z,42.79
2016-05-20T02:22:12.836Z,42.88
2016-05-20T02:23:12.901Z,42.79
2016-05-20T02:24:12.951Z,42.69
2016-05-20T02:25:13.000Z,43.07
2016-05-20T02:26:13.050Z,42.69
2016-05-20T02:27:13.100Z,42.69
2016-05-20T02:28:13.149Z,42.69
2016-05-20T02:29:13.199Z,42.69
2016-05-20T02:30:13.263Z,42.69
2016-05-20T02:31:13.282Z,42.69
2016-05-20T02:32:13.332Z,42.88
2016-05-20T02:33:13.396Z,42.88
2016-05-20T02:34:13.431Z,42.79
2016-05-20T02:35:13.479Z,42.69
2016-05-20T02:36:13.545Z,42.69
2016-05-20T02:37:13.439Z,42.88
2016-05-20T02:38:13.504Z,42.69
2016-05-20T02:39:14.054Z,42.5
2016-05-20T02:40:13.807Z,42.6
2016-05-20T02:41:13.809Z,42.5
2016-05-20T02:42:13.890Z,42.79
2016-05-20T02:43:13.893Z,42.69
2016-05-20T02:44:13.958Z,42.79
2016-05-20T02:45:14.007Z,42.79
2016-05-20T02:46:14.041Z,42.6
2016-05-20T02:47:13.950Z,42.6
2016-05-20T02:48:14.156Z,42.69
2016-05-20T02:49:14.206Z,42.79
2016-05-20T02:50:14.270Z,42.69
2016-05-20T02:51:14.148Z,42.69
2016-05-20T02:52:14.370Z,42.69
2016-05-20T02:53:14.404Z,42.5
2016-05-20T02:54:14.375Z,42.69
2016-05-20T02:55:14.503Z,42.3
2016-05-20T02:56:14.569Z,42.21
2016-05-20T02:57:14.602Z,42.21
2016-05-20T02:58:14.652Z,42.6
2016-05-20T02:59:14.716Z,42.88
2016-05-20T03:00:14.751Z,42.4
2016-05-20T03:01:14.800Z,42.79
2016-05-20T03:02:14.850Z,42.79
2016-05-20T03:03:14.744Z,42.98
2016-05-20T03:04:14.964Z,42.69
2016-05-20T03:05:15.015Z,42.4
2016-05-20T03:06:14.892Z,42.69
2016-05-20T03:07:15.098Z,42.4
2016-05-20T03:08:15.163Z,42.79
2016-05-20T03:09:15.228Z,42.88
2016-05-20T03:10:15.246Z,42.4
2016-05-20T03:11:15.312Z,42.21
2016-05-20T03:12:15.376Z,42.4
2016-05-20T03:13:15.411Z,42.4
2016-05-20T03:14:15.475Z,42.69
2016-05-20T03:15:15.525Z,42.5
2016-05-20T03:16:15.560Z,42.21
2016-05-20T03:17:15.625Z,42.5
2016-05-20T03:18:15.658Z,42.4
2016-05-20T03:19:15.568Z,42.21
2016-05-20T03:20:15.773Z,42.11
2016-05-20T03:21:15.807Z,42.4
2016-05-20T03:22:15.872Z,42.79
2016-05-20T03:23:15.922Z,42.5
2016-05-20T03:24:16.002Z,42.69
2016-05-20T03:25:16.005Z,42.5
2016-05-20T03:26:16.072Z,42.3
2016-05-20T03:27:16.119Z,42.4
2016-05-20T03:28:16.154Z,42.69
2016-05-20T03:29:16.235Z,42.4
2016-05-20T03:30:16.269Z,42.3
2016-05-20T03:31:16.319Z,42.88
2016-05-20T03:32:16.352Z,42.69
2016-05-20T03:33:16.418Z,42.5
2016-05-20T03:34:16.467Z,42.79
2016-05-20T03:35:16.516Z,42.5
2016-05-20T03:36:16.566Z,42.79
2016-05-20T03:37:16.631Z,42.79
2016-05-20T03:38:16.681Z,42.6
2016-05-20T03:39:16.559Z,42.69
2016-05-20T03:40:16.624Z,42.88
2016-05-20T03:41:16.829Z,42.69
2016-05-20T03:42:16.879Z,42.79
2016-05-20T03:43:16.913Z,42.4
2016-05-20T03:44:16.979Z,42.88
2016-05-20T03:45:17.043Z,42.6
2016-05-20T03:46:17.062Z,42.79
2016-05-20T03:47:17.127Z,42.69
2016-05-20T03:48:17.176Z,42.6
2016-05-20T03:49:17.225Z,42.69
2016-05-20T03:50:17.275Z,42.69
2016-05-20T03:51:17.341Z,42.69
2016-05-20T03:52:17.391Z,42.69
2016-05-20T03:53:17.425Z,42.69
2016-05-20T03:54:17.678Z,42.69
2016-05-20T03:55:17.539Z,42.69
2016-05-20T03:56:17.573Z,42.79
2016-05-20T03:57:17.623Z,42.6
2016-05-20T03:58:17.688Z,42.88
2016-05-20T03:59:17.738Z,42.88
2016-05-20T04:00:17.771Z,42.79
2016-05-20T04:01:17.836Z,42.79
2016-05-20T04:02:17.871Z,42.6
2016-05-20T04:03:17.921Z,42.79
2016-05-20T04:04:17.844Z,42.69
2016-05-20T04:05:18.051Z,42.69
2016-05-20T04:06:18.085Z,42.69
2016-05-20T04:07:17.994Z,42.69
2016-05-20T04:08:18.027Z,42.69
2016-05-20T04:09:18.248Z,42.79
2016-05-20T04:10:18.283Z,42.79
2016-05-20T04:11:18.332Z,42.88
2016-05-20T04:12:18.398Z,42.88
2016-05-20T04:13:18.431Z,42.88
2016-05-20T04:14:18.481Z,42.88
2016-05-20T04:15:18.546Z,42.69
2016-05-20T04:16:18.440Z,42.69
2016-05-20T04:17:18.474Z,42.88
2016-05-20T04:18:18.695Z,42.88
2016-05-20T04:19:18.745Z,42.6
2016-05-20T04:20:18.779Z,43.17
2016-05-20T04:21:18.828Z,43.17
2016-05-20T04:22:18.893Z,42.88
2016-05-20T04:23:18.958Z,42.88
2016-05-20T04:24:19.320Z,42.98
2016-05-20T04:25:19.042Z,42.6
2016-05-20T04:26:18.950Z,43.17
2016-05-20T04:27:19.156Z,43.17
2016-05-20T04:28:19.190Z,42.98
2016-05-20T04:29:19.255Z,43.07
2016-05-20T04:30:19.150Z,42.88
2016-05-20T04:31:19.339Z,43.17
2016-05-20T04:32:19.389Z,42.98
2016-05-20T04:33:19.438Z,43.17
2016-05-20T04:34:19.504Z,43.27
2016-05-20T04:35:19.553Z,43.07
2016-05-20T04:36:19.602Z,43.17
2016-05-20T04:37:19.637Z,42.98
2016-05-20T04:38:19.701Z,42.88
2016-05-20T04:39:19.736Z,42.88
2016-05-20T04:40:19.786Z,43.17
2016-05-20T04:41:19.851Z,43.27
2016-05-20T04:42:19.901Z,43.17
2016-05-20T04:43:19.949Z,43.27
2016-05-20T04:44:20.015Z,43.27
2016-05-20T04:45:20.112Z,43.55
2016-05-20T04:46:20.114Z,43.17
2016-05-20T04:47:20.148Z,43.07
2016-05-20T04:48:20.197Z,43.46
2016-05-20T04:49:20.262Z,43.36
2016-05-20T04:50:20.281Z,43.55
2016-05-20T04:51:20.345Z,43.27
2016-05-20T04:52:20.396Z,42.98
2016-05-20T04:53:20.445Z,43.46
2016-05-20T04:54:20.339Z,43.27
2016-05-20T04:55:20.561Z,43.46
2016-05-20T04:56:20.609Z,43.46
2016-05-20T04:57:20.643Z,43.46
2016-05-20T04:58:20.724Z,43.55
2016-05-20T04:59:20.758Z,43.65
2016-05-20T05:00:20.824Z,43.55
2016-05-20T05:01:20.857Z,43.74
2016-05-20T05:02:20.908Z,43.74
2016-05-20T05:03:20.956Z,43.55
2016-05-20T05:04:21.021Z,43.46
2016-05-20T05:05:20.900Z,43.46
2016-05-20T05:06:21.121Z,43.55
2016-05-20T05:07:21.171Z,43.55
2016-05-20T05:08:21.204Z,43.55
2016-05-20T05:09:21.348Z,43.65
2016-05-20T05:10:21.304Z,43.94
2016-05-20T05:11:21.353Z,43.84
2016-05-20T05:12:21.418Z,44.23
2016-05-20T05:13:21.451Z,44.03
2016-05-20T05:14:21.501Z,44.23
2016-05-20T05:15:21.567Z,44.03
2016-05-20T05:16:21.445Z,44.23
2016-05-20T05:17:21.651Z,44.32
2016-05-20T05:18:21.715Z,44.32
2016-05-20T05:19:21.765Z,44.42
2016-05-20T05:20:21.799Z,44.13
2016-05-20T05:21:21.865Z,44.23
2016-05-20T05:22:21.758Z,44.13
2016-05-20T05:23:21.947Z,44.61
2016-05-20T05:24:22.422Z,44.51
2016-05-20T05:25:22.078Z,44.61
2016-05-20T05:26:22.127Z,44.61
2016-05-20T05:27:22.161Z,44.8
2016-05-20T05:28:22.211Z,44.7
2016-05-20T05:29:22.277Z,44.61
2016-05-20T05:30:22.311Z,44.7
2016-05-20T05:31:22.360Z,44.7
2016-05-20T05:32:22.441Z,44.9
2016-05-20T05:33:22.459Z,44.7
2016-05-20T05:34:22.509Z,44.9
2016-05-20T05:35:22.574Z,44.61
2016-05-20T05:36:22.624Z,44.9
2016-05-20T05:37:22.673Z,44.9
2016-05-20T05:38:22.722Z,45.09
2016-05-20T05:39:23.056Z,44.9
2016-05-20T05:40:22.806Z,45.09
2016-05-20T05:41:22.872Z,45.09
2016-05-20T05:42:22.952Z,45.09
2016-05-20T05:43:22.970Z,45.28
2016-05-20T05:44:23.005Z,45.09
2016-05-20T05:45:23.084Z,45
2016-05-20T05:46:23.119Z,45
2016-05-20T05:47:23.168Z,45.28
2016-05-20T05:48:23.234Z,44.9
2016-05-20T05:49:23.283Z,44.9
2016-05-20T05:50:23.334Z,45.67
2016-05-20T05:51:23.367Z,45
2016-05-20T05:52:23.260Z,45.28
2016-05-20T05:53:23.481Z,44.9
2016-05-20T05:54:23.640Z,45.09
2016-05-20T05:55:23.565Z,44.9
2016-05-20T05:56:23.474Z,45
2016-05-20T05:57:23.665Z,44.9
2016-05-20T05:58:23.714Z,45.28
2016-05-20T05:59:23.792Z,45.76
2016-05-20T06:00:23.886Z,45.09
2016-05-20T06:01:23.808Z,45.28
2016-05-20T06:02:24.106Z,45.37
2016-05-20T06:03:24.169Z,45.18
2016-05-20T06:04:24.098Z,45.28
2016-05-20T06:05:24.320Z,45.37
2016-05-20T06:06:24.386Z,45.28
2016-05-20T06:07:24.467Z,45.18
2016-05-20T06:08:24.517Z,45.28
2016-05-20T06:09:24.658Z,45.18
2016-05-20T06:10:24.651Z,45.47
2016-05-20T06:11:24.706Z,45.37
2016-05-20T06:12:24.605Z,45.28
2016-05-20T06:13:24.816Z,45.47
2016-05-20T06:14:24.714Z,45.57
2016-05-20T06:15:24.906Z,45.57
2016-05-20T06:16:24.989Z,45.47
2016-05-20T06:17:25.025Z,45.67
2016-05-20T06:18:24.920Z,45.37
2016-05-20T06:19:25.129Z,45.28
2016-05-20T06:20:25.162Z,45.28
2016-05-20T06:21:25.229Z,45.09
2016-05-20T06:22:25.278Z,45.57
2016-05-20T06:23:25.174Z,45.28
2016-05-20T06:24:25.364Z,45.09
2016-05-20T06:25:25.444Z,45.18
2016-05-20T06:26:25.323Z,45.09
2016-05-20T06:27:25.373Z,45.09
2016-05-20T06:28:25.595Z,45.09
2016-05-20T06:29:25.629Z,45.09
2016-05-20T06:30:25.694Z,45.28
2016-05-20T06:31:25.728Z,45.95
2016-05-20T06:32:25.778Z,45.47
2016-05-20T06:33:25.843Z,46.43
2016-05-20T06:34:25.892Z,45.95
2016-05-20T06:35:25.927Z,46.14
2016-05-20T06:36:25.992Z,45.76
2016-05-20T06:37:26.042Z,46.62
2016-05-20T06:38:26.091Z,45.57
2016-05-20T06:39:26.141Z,45.67
2016-05-20T06:40:26.394Z,46.24
2016-05-20T06:41:26.239Z,46.05
2016-05-20T06:42:26.273Z,45.95
2016-05-20T06:43:26.339Z,46.24
2016-05-20T06:44:26.388Z,45.86
2016-05-20T06:45:26.438Z,46.14
2016-05-20T06:46:26.331Z,45.86
2016-05-20T06:47:26.552Z,46.05
2016-05-20T06:48:26.602Z,46.53
2016-05-20T06:49:26.635Z,45.86
2016-05-20T06:50:26.717Z,46.05
2016-05-20T06:51:26.595Z,45.95
2016-05-20T06:52:26.785Z,46.53
2016-05-20T06:53:26.850Z,46.53
2016-05-20T06:54:27.134Z,46.24
2016-05-20T06:55:26.965Z,46.34
2016-05-20T06:56:26.999Z,45.95
2016-05-20T06:57:27.064Z,46.53
2016-05-20T06:58:27.114Z,47.3
2016-05-20T06:59:27.163Z,46.81
2016-05-20T07:00:27.197Z,46.62
2016-05-20T07:01:27.247Z,46.91
2016-05-20T07:02:27.312Z,46.62
2016-05-20T07:03:27.189Z,47.2
2016-05-20T07:04:27.411Z,47.1
2016-05-20T07:05:27.444Z,47.1
2016-05-20T07:06:27.494Z,47.01
2016-05-20T07:07:27.403Z,46.72
2016-05-20T07:08:27.578Z,47.2
2016-05-20T07:09:27.643Z,47.49
2016-05-20T07:10:28.146Z,47.39
2016-05-20T07:11:27.742Z,48.07
2016-05-20T07:12:27.792Z,47.3
2016-05-20T07:13:27.872Z,47.3
2016-05-20T07:14:27.907Z,47.49
2016-05-20T07:15:27.941Z,47.1
2016-05-20T07:16:28.022Z,47.58
2016-05-20T07:17:28.055Z,47.58
2016-05-20T07:18:28.105Z,47.39
2016-05-20T07:19:28.171Z,47.49
2016-05-20T07:20:28.219Z,47.58
2016-05-20T07:21:28.253Z,47.68
2016-05-20T07:22:28.318Z,47.77
2016-05-20T07:23:28.352Z,47.87
2016-05-20T07:24:28.480Z,47.2
2016-05-20T07:25:28.326Z,47.2
2016-05-20T07:26:28.517Z,47.49
2016-05-20T07:27:28.551Z,47.39
2016-05-20T07:28:28.616Z,47.3
2016-05-20T07:29:28.697Z,47.2
2016-05-20T07:30:28.543Z,47.2
2016-05-20T07:31:28.749Z,47.58
2016-05-20T07:32:28.815Z,47.77
2016-05-20T07:33:28.864Z,47.97
2016-05-20T07:34:28.757Z,48.25
2016-05-20T07:35:28.964Z,48.07
2016-05-20T07:36:28.997Z,48.54
2016-05-20T07:37:29.061Z,47.77
2016-05-20T07:38:29.111Z,48.16
2016-05-20T07:39:29.145Z,48.54
2016-05-20T07:40:29.164Z,48.44
2016-05-20T07:41:29.260Z,48.54
2016-05-20T07:42:29.310Z,48.25
2016-05-20T07:43:29.375Z,48.35
2016-05-20T07:44:29.425Z,48.44
2016-05-20T07:45:29.458Z,48.54
2016-05-20T07:46:29.524Z,48.35
2016-05-20T07:47:29.558Z,48.54
2016-05-20T07:48:29.623Z,48.25
2016-05-20T07:49:29.672Z,48.44
2016-05-20T07:50:29.722Z,48.35
2016-05-20T07:51:29.772Z,48.44
2016-05-20T07:52:29.838Z,48.35
2016-05-20T07:53:29.854Z,48.25
2016-05-20T07:54:29.920Z,48.44
2016-05-20T07:55:29.938Z,48.54
2016-05-20T07:56:30.004Z,48.35
2016-05-20T07:57:29.897Z,48.25
2016-05-20T07:58:30.118Z,48.35
2016-05-20T07:59:31.702Z,48.25
2016-05-20T08:00:30.218Z,48.44
2016-05-20T08:01:30.267Z,48.35
2016-05-20T08:02:39.195Z,48.44
2016-05-20T08:03:30.382Z,48.35
2016-05-20T08:04:30.416Z,48.74
2016-05-20T08:05:30.481Z,48.64
2016-05-20T08:06:30.531Z,48.74
2016-05-20T08:07:37.958Z,48.64
2016-05-20T08:08:30.614Z,48.64
2016-05-20T08:09:30.930Z,48.74
2016-05-20T08:10:31.417Z,48.74
2016-05-20T08:11:30.794Z,48.54
2016-05-20T08:12:30.813Z,48.83
2016-05-20T08:13:30.737Z,48.44
2016-05-20T08:14:30.771Z,49.12
2016-05-20T08:15:30.961Z,48.54
2016-05-20T08:16:31.011Z,48.54
2016-05-20T08:17:42.563Z,49.12
2016-05-20T08:18:30.969Z,48.83
2016-05-20T08:19:31.175Z,48.74
2016-05-20T08:20:34.837Z,48.54
2016-05-20T08:21:31.290Z,48.64
2016-05-20T08:22:35.592Z,48.64
2016-05-20T08:23:31.404Z,48.93
2016-05-20T08:24:31.423Z,48.74
2016-05-20T08:25:34.035Z,48.83
2016-05-20T08:26:31.663Z,48.64
2016-05-20T08:27:31.571Z,48.83
2016-05-20T08:28:31.637Z,48.54
2016-05-20T08:29:31.701Z,48.74
2016-05-20T08:30:32.236Z,48.64
2016-05-20T08:31:31.801Z,48.93
2016-05-20T08:32:31.834Z,49.02
2016-05-20T08:33:31.870Z,49.02
2016-05-20T08:34:34.622Z,49.41
2016-05-20T08:35:31.906Z,49.12
2016-05-20T08:36:35.505Z,48.93
2016-05-20T08:37:32.083Z,48.74
2016-05-20T08:38:32.117Z,48.74
2016-05-20T08:39:32.197Z,48.93
2016-05-20T08:40:32.091Z,48.83
2016-05-20T08:41:32.281Z,48.54
2016-05-20T08:42:32.347Z,48.74
2016-05-20T08:43:32.397Z,48.93
2016-05-20T08:44:32.430Z,49.12
2016-05-20T08:45:32.479Z,49.5
2016-05-20T08:46:32.544Z,48.83
2016-05-20T08:47:32.594Z,49.02
2016-05-20T08:48:32.628Z,48.93
2016-05-20T08:49:32.709Z,48.83
2016-05-20T08:50:32.743Z,48.83
2016-05-20T08:51:32.808Z,48.93
2016-05-20T08:52:32.827Z,49.12
2016-05-20T08:53:32.876Z,48.83
2016-05-20T08:54:32.941Z,48.74
2016-05-20T08:55:32.990Z,48.64
2016-05-20T08:56:33.025Z,48.83
2016-05-20T08:57:33.090Z,49.02
2016-05-20T08:58:33.139Z,48.83
2016-05-20T08:59:33.190Z,48.74
2016-05-20T09:00:33.254Z,48.93
2016-05-20T09:01:33.304Z,48.93
2016-05-20T09:02:33.337Z,48.93
2016-05-20T09:03:33.403Z,48.74
2016-05-20T09:04:33.484Z,49.31
2016-05-20T09:05:33.487Z,48.93
2016-05-20T09:06:33.551Z,49.02
2016-05-20T09:07:33.444Z,48.83
2016-05-20T09:08:33.651Z,49.12
2016-05-20T09:09:33.700Z,48.83
2016-05-20T09:10:33.844Z,48.74
2016-05-20T09:11:33.784Z,48.93
2016-05-20T09:12:33.833Z,49.41
2016-05-20T09:13:33.898Z,49.02
2016-05-20T09:14:33.933Z,48.83
2016-05-20T09:15:34.013Z,48.93
2016-05-20T09:16:34.031Z,48.54
2016-05-20T09:17:34.097Z,48.54
2016-05-20T09:18:34.162Z,48.93
2016-05-20T09:19:34.197Z,48.74
2016-05-20T09:20:34.230Z,48.54
2016-05-20T09:21:34.311Z,48.54
2016-05-20T09:22:34.188Z,48.35
2016-05-20T09:23:34.332Z,48.93
2016-05-20T09:24:34.335Z,49.02
2016-05-20T09:25:34.790Z,49.02
2016-05-20T09:26:34.543Z,49.69
2016-05-20T09:27:34.623Z,49.41
2016-05-20T09:28:34.643Z,49.41
2016-05-20T09:29:34.707Z,49.31
2016-05-20T09:30:34.741Z,49.21
2016-05-20T09:31:34.807Z,49.31
2016-05-20T09:32:34.715Z,49.12
2016-05-20T09:33:34.921Z,49.31
2016-05-20T09:34:34.955Z,49.6
2016-05-20T09:35:34.879Z,49.69
2016-05-20T09:36:35.085Z,49.41
2016-05-20T09:37:35.087Z,49.69
2016-05-20T09:38:35.153Z,49.31
2016-05-20T09:39:35.218Z,49.98
2016-05-20T09:40:35.283Z,49.5
2016-05-20T09:41:35.317Z,49.5
2016-05-20T09:42:35.211Z,49.88
2016-05-20T09:43:35.417Z,49.5
2016-05-20T09:44:35.467Z,49.88
2016-05-20T09:45:35.500Z,49.98
2016-05-20T09:46:35.581Z,49.6
2016-05-20T09:47:35.614Z,49.31
2016-05-20T09:48:35.664Z,49.5
2016-05-20T09:49:35.714Z,49.41
2016-05-20T09:50:35.780Z,49.6
2016-05-20T09:51:35.641Z,49.6
2016-05-20T09:52:35.863Z,49.79
2016-05-20T09:53:35.913Z,49.5
2016-05-20T09:54:35.962Z,49.31
2016-05-20T09:55:36.043Z,49.79
2016-05-20T09:56:36.045Z,49.88
2016-05-20T09:57:36.111Z,49.69
2016-05-20T09:58:36.160Z,49.98
2016-05-20T09:59:36.053Z,49.88
2016-05-20T10:00:36.243Z,50.27
2016-05-20T10:01:36.324Z,50.17
2016-05-20T10:02:36.202Z,49.79
2016-05-20T10:03:36.408Z,49.79
2016-05-20T10:04:36.473Z,49.88
2016-05-20T10:05:36.523Z,49.98
2016-05-20T10:06:36.573Z,50.17
2016-05-20T10:07:36.607Z,49.98
2016-05-20T10:08:36.656Z,49.98
2016-05-20T10:09:36.721Z,50.08
2016-05-20T10:10:36.598Z,50.56
2016-05-20T10:11:36.664Z,49.98
2016-05-20T10:12:36.886Z,49.79
2016-05-20T10:13:36.919Z,50.08
2016-05-20T10:14:36.953Z,50.27
2016-05-20T10:15:37.034Z,50.75
2016-05-20T10:16:37.067Z,50.56
2016-05-20T10:17:37.117Z,50.56
2016-05-20T10:18:37.183Z,50.46
2016-05-20T10:19:37.216Z,50.37
2016-05-20T10:20:37.282Z,50.46
2016-05-20T10:21:37.316Z,50.17
2016-05-20T10:22:37.365Z,50.37
2016-05-20T10:23:37.430Z,50.46
2016-05-20T10:24:37.511Z,50.56
2016-05-20T10:25:37.717Z,50.37
2016-05-20T10:26:37.594Z,50.65
2016-05-20T10:27:37.629Z,50.27
2016-05-20T10:28:37.678Z,50.94
2016-05-20T10:29:37.727Z,50.37
2016-05-20T10:30:37.668Z,50.08
2016-05-20T10:31:37.687Z,50.46
2016-05-20T10:32:37.892Z,50.84
2016-05-20T10:33:37.926Z,50.75
2016-05-20T10:34:37.991Z,50.84
2016-05-20T10:35:37.901Z,50.46
2016-05-20T10:36:38.075Z,50.65
2016-05-20T10:37:38.124Z,50.17
2016-05-20T10:38:38.190Z,50.65
2016-05-20T10:39:38.223Z,50.56
2016-05-20T10:40:38.461Z,50.56
2016-05-20T10:41:38.339Z,50.65
2016-05-20T10:42:38.387Z,50.75
2016-05-20T10:43:39.641Z,50.84
2016-05-20T10:44:38.502Z,50.56
2016-05-20T10:45:38.584Z,50.65
2016-05-20T10:46:38.571Z,50.37
2016-05-20T10:47:38.636Z,50.27
2016-05-20T10:48:38.686Z,50.84
2016-05-20T10:49:38.736Z,50.46
2016-05-20T10:50:38.800Z,50.65
2016-05-20T10:51:38.865Z,50.46
2016-05-20T10:52:38.962Z,50.08
2016-05-20T10:53:40.324Z,50.56
2016-05-20T10:54:38.999Z,50.08
2016-05-20T10:55:39.438Z,50.84
2016-05-20T10:56:39.129Z,50.75
2016-05-20T10:57:39.147Z,50.65
2016-05-20T10:58:40.556Z,50.65
2016-05-20T10:59:39.247Z,50.94
2016-05-20T11:00:39.279Z,51.14
2016-05-20T11:01:39.329Z,50.56
2016-05-20T11:02:39.395Z,51.14
2016-05-20T11:03:40.257Z,51.04
2016-05-20T11:04:39.479Z,51.42
2016-05-20T11:05:39.543Z,51.23
2016-05-20T11:06:39.577Z,51.04
2016-05-20T11:07:39.627Z,50.84
2016-05-20T11:08:39.926Z,50.94
2016-05-20T11:09:39.742Z,50.84
2016-05-20T11:10:39.792Z,50.65
2016-05-20T11:11:39.841Z,51.14
2016-05-20T11:12:39.876Z,50.65
2016-05-20T11:13:40.503Z,50.46
2016-05-20T11:14:39.989Z,50.37
2016-05-20T11:15:40.039Z,50.37
2016-05-20T11:16:40.120Z,50.56
2016-05-20T11:17:40.061Z,50.46
2016-05-20T11:18:40.203Z,50.65
2016-05-20T11:19:40.097Z,50.84
2016-05-20T11:20:40.303Z,50.84
2016-05-20T11:21:40.336Z,50.65
2016-05-20T11:22:40.292Z,50.75
2016-05-20T11:23:40.576Z,50.46
2016-05-20T11:24:40.344Z,50.56
2016-05-20T11:25:40.394Z,50.08
2016-05-20T11:26:40.600Z,50.17
2016-05-20T11:27:40.743Z,50.27
2016-05-20T11:28:40.699Z,50.37
2016-05-20T11:29:40.749Z,50.65
2016-05-20T11:30:40.658Z,50.27
2016-05-20T11:31:40.849Z,50.65
2016-05-20T11:32:40.897Z,50.65
2016-05-20T11:33:40.963Z,50.17
2016-05-20T11:34:41.012Z,50.65
2016-05-20T11:35:41.046Z,50.17
2016-05-20T11:36:41.112Z,50.17
2016-05-20T11:37:41.145Z,50.56
2016-05-20T11:38:41.210Z,50.56
2016-05-20T11:39:41.259Z,51.51
2016-05-20T11:40:41.137Z,51.04
2016-05-20T11:41:41.359Z,50.94
2016-05-20T11:42:41.409Z,50.94
2016-05-20T11:43:41.458Z,51.32
2016-05-20T11:44:41.493Z,51.32
2016-05-20T11:45:41.401Z,50.94
2016-05-20T11:46:41.606Z,50.84
2016-05-20T11:47:41.656Z,51.32
2016-05-20T11:48:41.565Z,51.32
2016-05-20T11:49:41.756Z,51.23
2016-05-20T11:50:41.664Z,51.23
2016-05-20T11:51:41.856Z,50.75
2016-05-20T11:52:41.904Z,51.42
2016-05-20T11:53:41.813Z,51.23
2016-05-20T11:54:42.019Z,51.14
2016-05-20T11:55:41.897Z,51.04
2016-05-20T11:56:41.962Z,51.32
2016-05-20T11:57:42.168Z,51.23
2016-05-20T11:58:42.202Z,51.23
2016-05-20T11:59:42.361Z,51.51
2016-05-20T12:00:42.316Z,51.23
2016-05-20T12:01:42.382Z,51.42
2016-05-20T12:02:42.400Z,51.32
2016-05-20T12:03:42.449Z,51.51
2016-05-20T12:04:42.515Z,51.61
2016-05-20T12:05:42.565Z,51.51
2016-05-20T12:06:42.598Z,51.14
2016-05-20T12:07:42.695Z,50.84
2016-05-20T12:08:42.728Z,50.75
2016-05-20T12:09:42.607Z,50.46
2016-05-20T12:10:42.828Z,50.37
2016-05-20T12:11:42.893Z,50.37
2016-05-20T12:12:42.912Z,50.46
2016-05-20T12:13:43.274Z,50.56
2016-05-20T12:14:43.026Z,50.46
2016-05-20T12:15:43.075Z,50.46
2016-05-20T12:16:42.984Z,51.14
2016-05-20T12:17:43.159Z,51.32
2016-05-20T12:18:43.225Z,51.61
2016-05-20T12:19:43.273Z,51.23
2016-05-20T12:20:43.308Z,51.23
2016-05-20T12:21:43.372Z,51.14
2016-05-20T12:22:43.266Z,51.14
2016-05-20T12:23:43.472Z,51.23
2016-05-20T12:24:43.350Z,50.65
2016-05-20T12:25:43.587Z,50.37
2016-05-20T12:26:43.636Z,50.17
2016-05-20T12:27:43.670Z,50.46
2016-05-20T12:28:43.736Z,50.56
2016-05-20T12:29:43.769Z,50.46
2016-05-20T12:30:43.819Z,50.56
2016-05-20T12:31:43.885Z,50.27
2016-05-20T12:32:43.933Z,50.75
2016-05-20T12:33:43.983Z,50.08
2016-05-20T12:34:44.033Z,50.17
2016-05-20T12:35:44.083Z,50.65
2016-05-20T12:36:44.132Z,50.84
2016-05-20T12:37:44.197Z,50.94
2016-05-20T12:38:44.090Z,50.84
2016-05-20T12:39:44.282Z,50.75
2016-05-20T12:40:44.190Z,51.04
2016-05-20T12:41:44.379Z,50.75
2016-05-20T12:42:44.571Z,50.84
2016-05-20T12:43:44.495Z,50.94
2016-05-20T12:44:44.529Z,50.84
2016-05-20T12:45:44.578Z,50.37
2016-05-20T12:46:44.628Z,50.75
2016-05-20T12:47:45.976Z,50.17
2016-05-20T12:48:44.570Z,50.37
2016-05-20T12:49:44.792Z,51.32
2016-05-20T12:50:44.842Z,51.32
2016-05-20T12:51:44.892Z,51.32
2016-05-20T12:52:45.409Z,50.46
2016-05-20T12:53:44.990Z,50.65
2016-05-20T12:54:44.884Z,50.27
2016-05-20T12:55:45.090Z,50.37